Isles of Scilly, United Kingdom
Current Conditions -  °F | °C
As of 4:20 PM on Friday 28 Nov 2014 (Local Time) from EGHE Reporting Station
Broken Clouds Broken Clouds  
Wind Chill: 55°   Ceiling: 1200
Heat Index: 55°   Visibility: 5mi
Dew Point: 52°   Wind: 29mph
Humidity: 88%   Direction: 90°E
Pressure: 29.41"   Gusts: NA
Location:  49.91°N, 6.31°W
Report Text: EGHE 281620Z 09025KT 8000 FEW007 BKN012 13/11 Q0996
Loading
Personal Weather Stations






























Interactive Weather Map New forecast layout! Learn more

10-Day Weather Forecast

Advertisements
Track Severe Weather on mobile